Time;durP1;ratioP1;P1;durP2;ratioP2;P2;SDS_P1;SDS_P2;PMS_P1;PMS_P2;Temp;Humidity;BMP_temperature;BMP_pressure;BME280_temperature;BME280_humidity;BME280_pressure;Samples;Min_cycle;Max_cycle;Signal;HPM_P1;HPM_P2
2023/01/08 00:01:59;;;;;;;;;;;16.20;92.40;;;;;;5016299;28;20270;-86
2023/01/08 00:04:24;;;;;;;;;;;16.20;92.50;;;;;;5016167;28;20303;-86
2023/01/08 00:06:50;;;;;;;;;;;16.30;92.60;;;;;;5033507;28;20066;-86
2023/01/08 00:09:16;;;;;;;;;;;16.30;92.60;;;;;;5015762;28;20303;-86
2023/01/08 00:11:43;;;;;;;;;;;16.20;92.60;;;;;;5015529;28;19916;-85
2023/01/08 00:14:09;;;;;;;;;;;16.20;92.60;;;;;;5014077;28;19996;-86
2023/01/08 00:16:34;;;;;;;;;;;16.20;92.70;;;;;;5029385;28;20008;-85
2023/01/08 00:19:00;;;;;;;;;;;16.20;92.70;;;;;;5030184;28;20016;-85
2023/01/08 00:21:25;;;;;;;;;;;16.20;92.80;;;;;;5013709;28;19913;-86
2023/01/08 00:23:51;;;;;;;;;;;16.10;93.10;;;;;;5012343;28;19975;-86
2023/01/08 00:26:17;;;;;;;;;;;16.10;92.90;;;;;;5013065;28;19936;-86
2023/01/08 00:28:42;;;;;;;;;;;16.10;93.00;;;;;;5012250;28;19948;-86
2023/01/08 00:31:09;;;;;;;;;;;16.10;93.00;;;;;;5012718;28;20291;-86
2023/01/08 00:33:35;;;;;;;;;;;16.10;93.10;;;;;;5029331;28;20015;-86
2023/01/08 00:36:08;;;;;;;;;;;16.10;93.10;;;;;;5028540;28;20233;-86
2023/01/08 00:38:34;;;;;;;;;;;16.00;93.10;;;;;;5030206;28;19913;-86
2023/01/08 00:40:59;;;;;;;;;;;16.00;93.20;;;;;;5014335;28;20165;-86
2023/01/08 00:43:25;;;;;;;;;;;16.00;93.20;;;;;;5014964;28;19920;-86
2023/01/08 00:45:52;;;;;;;;;;;16.00;93.30;;;;;;5033179;28;19909;-86
2023/01/08 00:48:18;;;;;;;;;;;16.00;93.30;;;;;;5032269;28;19949;-86
2023/01/08 00:50:43;;;;;;;;;;;16.00;93.40;;;;;;5032365;28;20014;-85
2023/01/08 00:53:11;;;;;;;;;;;15.90;93.40;;;;;;5015688;28;20400;-86
2023/01/08 00:55:36;;;;;;;;;;;15.90;93.40;;;;;;5030998;28;20238;-86
2023/01/08 00:58:02;;;;;;;;;;;15.90;93.50;;;;;;5032114;28;19940;-86
2023/01/08 01:00:27;;;;;;;;;;;15.90;93.50;;;;;;5014782;28;19952;-86
2023/01/08 01:02:53;;;;;;;;;;;15.90;93.50;;;;;;5014107;28;19999;-86
2023/01/08 01:05:18;;;;;;;;;;;15.90;93.50;;;;;;5014221;28;19913;-86
2023/01/08 01:07:44;;;;;;;;;;;15.90;93.60;;;;;;5014965;28;20196;-86
2023/01/08 01:10:11;;;;;;;;;;;15.90;93.70;;;;;;5031487;28;19909;-85
2023/01/08 01:12:37;;;;;;;;;;;15.90;93.60;;;;;;5032188;28;19916;-85
2023/01/08 01:15:04;;;;;;;;;;;15.80;93.60;;;;;;5017957;28;19909;-86
2023/01/08 01:17:30;;;;;;;;;;;15.80;93.60;;;;;;5037874;28;19917;-86
2023/01/08 01:19:55;;;;;;;;;;;15.80;93.70;;;;;;5020375;28;19970;-86
2023/01/08 01:22:21;;;;;;;;;;;15.80;94.00;;;;;;5020671;28;19910;-86
2023/01/08 01:24:46;;;;;;;;;;;15.80;93.80;;;;;;5021373;28;20286;-86
2023/01/08 01:27:12;;;;;;;;;;;15.80;93.80;;;;;;5020965;28;19909;-86
2023/01/08 01:29:37;;;;;;;;;;;15.80;93.80;;;;;;5021007;28;20286;-86
2023/01/08 01:32:04;;;;;;;;;;;15.80;93.80;;;;;;5020276;28;20191;-86
2023/01/08 01:34:30;;;;;;;;;;;15.80;93.80;;;;;;5019865;28;19917;-86
2023/01/08 01:36:56;;;;;;;;;;;15.80;93.80;;;;;;5037181;28;19936;-86
2023/01/08 01:39:22;;;;;;;;;;;15.80;93.90;;;;;;5038112;28;19920;-86
2023/01/08 01:41:48;;;;;;;;;;;15.80;93.80;;;;;;4975510;28;20070;-86
2023/01/08 01:44:33;;;;;;;;;;;15.70;94.10;;;;;;5036558;28;19909;-86
2023/01/08 01:47:26;;;;;;;;;;;15.80;93.90;;;;;;5037032;28;19923;-86
2023/01/08 01:50:00;;;;;;;;;;;15.70;93.90;;;;;;5018258;28;19920;-86
2023/01/08 01:52:27;;;;;;;;;;;15.70;93.90;;;;;;5021149;28;19909;-86
2023/01/08 01:54:53;;;;;;;;;;;15.70;94.00;;;;;;5035502;28;19909;-86
2023/01/08 01:57:19;;;;;;;;;;;15.70;94.00;;;;;;5035746;28;19913;-86
2023/01/08 01:59:46;;;;;;;;;;;15.70;94.00;;;;;;5018631;28;19966;-86
2023/01/08 02:02:11;;;;;;;;;;;15.70;94.00;;;;;;5035633;28;20203;-86
2023/01/08 02:04:37;;;;;;;;;;;15.70;94.00;;;;;;5018801;28;20302;-86
2023/01/08 02:07:29;;;;;;;;;;;15.70;94.10;;;;;;5018557;28;20310;-86
2023/01/08 02:09:57;;;;;;;;;;;15.70;94.10;;;;;;5034555;28;19913;-86
2023/01/08 02:12:43;;;;;;;;;;;15.70;94.10;;;;;;5020954;28;19909;-86
2023/01/08 02:15:12;;;;;;;;;;;15.70;94.10;;;;;;5019729;28;19916;-86
2023/01/08 02:17:37;;;;;;;;;;;15.70;94.10;;;;;;5019169;28;19928;-86
2023/01/08 02:20:23;;;;;;;;;;;15.70;94.10;;;;;;5019276;28;20187;-86
2023/01/08 02:22:52;;;;;;;;;;;15.70;94.10;;;;;;5011733;28;19909;-86
2023/01/08 02:25:41;;;;;;;;;;;15.60;94.10;;;;;;5042678;28;19917;-86
2023/01/08 02:28:09;;;;;;;;;;;15.60;94.10;;;;;;5000768;28;19916;-86
2023/01/08 02:30:35;;;;;;;;;;;15.60;94.10;;;;;;5036068;28;20210;-85
2023/01/08 02:33:00;;;;;;;;;;;15.60;94.10;;;;;;5036437;28;20003;-86
2023/01/08 02:35:33;;;;;;;;;;;15.60;94.20;;;;;;5019737;28;19952;-86
2023/01/08 02:37:59;;;;;;;;;;;15.60;94.20;;;;;;5038550;28;20326;-86
2023/01/08 02:40:31;;;;;;;;;;;15.60;94.20;;;;;;5037329;28;19909;-86
2023/01/08 02:42:57;;;;;;;;;;;15.60;94.20;;;;;;5037911;28;19917;-86
2023/01/08 02:45:42;;;;;;;;;;;15.60;94.20;;;;;;5037229;28;19909;-87
2023/01/08 02:48:12;;;;;;;;;;;15.60;94.20;;;;;;5037424;28;19909;-86
2023/01/08 02:50:40;;;;;;;;;;;15.60;94.30;;;;;;5035836;28;19909;-86
2023/01/08 02:53:12;;;;;;;;;;;15.50;94.30;;;;;;5037453;28;20160;-87
2023/01/08 02:55:38;;;;;;;;;;;15.60;94.30;;;;;;5037058;28;19979;-86
2023/01/08 02:58:04;;;;;;;;;;;15.50;94.30;;;;;;5036708;28;20279;-86
2023/01/08 03:00:30;;;;;;;;;;;15.50;94.30;;;;;;5034107;28;19910;-86
2023/01/08 03:03:16;;;;;;;;;;;15.50;94.30;;;;;;5036457;28;19968;-86
2023/01/08 03:05:44;;;;;;;;;;;15.50;94.40;;;;;;5036410;28;19909;-86
2023/01/08 03:08:10;;;;;;;;;;;15.50;94.40;;;;;;5035958;28;19913;-87
2023/01/08 03:10:37;;;;;;;;;;;15.50;94.40;;;;;;5035917;28;20242;-86
2023/01/08 03:13:06;;;;;;;;;;;15.50;94.50;;;;;;5036541;28;19975;-86
2023/01/08 03:16:01;;;;;;;;;;;15.50;94.50;;;;;;5036625;28;20188;-86
2023/01/08 03:18:30;;;;;;;;;;;15.50;94.60;;;;;;5011310;28;20003;-86
2023/01/08 03:20:56;;;;;;;;;;;15.50;94.60;;;;;;5018792;28;19921;-86
2023/01/08 03:23:22;;;;;;;;;;;15.50;94.60;;;;;;5035740;28;19913;-86
2023/01/08 03:25:48;;;;;;;;;;;15.40;94.60;;;;;;5036191;28;19909;-86
2023/01/08 03:28:17;;;;;;;;;;;15.40;94.70;;;;;;5018465;28;20408;-85
2023/01/08 03:30:44;;;;;;;;;;;15.40;94.70;;;;;;5034533;28;19999;-85
2023/01/08 03:33:11;;;;;;;;;;;15.40;94.70;;;;;;5035597;28;19921;-86
2023/01/08 03:35:39;;;;;;;;;;;15.40;94.80;;;;;;5036987;28;20000;-86
2023/01/08 03:38:09;;;;;;;;;;;15.40;94.80;;;;;;5019660;28;20279;-86
2023/01/08 03:40:38;;;;;;;;;;;15.40;94.80;;;;;;5034894;28;19953;-86
2023/01/08 03:43:04;;;;;;;;;;;15.40;94.90;;;;;;5032771;28;19909;-85
2023/01/08 03:45:30;;;;;;;;;;;15.40;94.90;;;;;;5017667;28;20012;-85
2023/01/08 03:47:56;;;;;;;;;;;15.30;95.00;;;;;;5034974;28;20000;-86
2023/01/08 03:50:24;;;;;;;;;;;15.30;95.00;;;;;;5035240;28;20003;-85
2023/01/08 03:52:50;;;;;;;;;;;15.30;95.10;;;;;;5034335;28;19943;-86
2023/01/08 03:55:15;;;;;;;;;;;15.30;95.20;;;;;;5017476;28;19999;-86
2023/01/08 03:57:41;;;;;;;;;;;15.90;94.20;;;;;;5019116;28;19951;-85
2023/01/08 04:00:07;;;;;;;;;;;16.70;91.80;;;;;;5018095;28;20249;-86
2023/01/08 04:02:32;;;;;;;;;;;17.10;90.30;;;;;;5033372;28;19913;-86
2023/01/08 04:04:58;;;;;;;;;;;17.40;88.50;;;;;;5015212;28;19974;-86
2023/01/08 04:07:23;;;;;;;;;;;17.70;86.70;;;;;;5014974;28;19974;-85
2023/01/08 04:09:49;;;;;;;;;;;17.80;85.50;;;;;;5015534;28;20162;-86
2023/01/08 04:12:15;;;;;;;;;;;18.00;84.20;;;;;;5017642;28;19975;-86
2023/01/08 04:14:40;;;;;;;;;;;18.10;83.00;;;;;;5017563;28;19909;-85
2023/01/08 04:17:06;;;;;;;;;;;18.20;82.20;;;;;;5018992;28;20335;-86
2023/01/08 04:19:32;;;;;;;;;;;18.30;81.30;;;;;;5035680;28;19913;-86
2023/01/08 04:21:57;;;;;;;;;;;18.40;80.30;;;;;;5017821;28;20283;-85
2023/01/08 04:24:23;;;;;;;;;;;18.60;79.10;;;;;;5034203;28;19909;-86
2023/01/08 04:26:48;;;;;;;;;;;18.70;78.00;;;;;;5017704;28;19920;-86
2023/01/08 04:29:14;;;;;;;;;;;18.80;77.50;;;;;;5034814;28;19920;-87
2023/01/08 04:31:40;;;;;;;;;;;18.80;77.40;;;;;;5018252;28;20391;-86
2023/01/08 04:34:05;;;;;;;;;;;18.70;77.20;;;;;;5035009;28;19917;-86
2023/01/08 04:36:32;;;;;;;;;;;18.70;77.40;;;;;;5016686;28;21260;-86
2023/01/08 04:38:58;;;;;;;;;;;18.60;77.80;;;;;;5035446;28;19921;-86
2023/01/08 04:41:24;;;;;;;;;;;18.50;78.30;;;;;;5034620;28;19909;-86
2023/01/08 04:43:49;;;;;;;;;;;18.40;79.10;;;;;;5034329;28;20263;-86
2023/01/08 04:46:15;;;;;;;;;;;18.30;79.60;;;;;;5015965;28;19920;-86
2023/01/08 04:48:41;;;;;;;;;;;18.30;80.10;;;;;;5018395;28;19975;-86
2023/01/08 04:51:07;;;;;;;;;;;18.20;80.50;;;;;;5019653;28;19970;-86
2023/01/08 04:53:33;;;;;;;;;;;18.10;81.00;;;;;;5019389;28;19963;-86
2023/01/08 04:56:06;;;;;;;;;;;18.10;81.70;;;;;;5036188;28;20205;-86
2023/01/08 04:58:33;;;;;;;;;;;17.90;82.40;;;;;;5038542;28;19913;-87
2023/01/08 05:00:58;;;;;;;;;;;17.80;83.20;;;;;;5039315;28;19956;-86
2023/01/08 05:03:24;;;;;;;;;;;17.70;83.90;;;;;;5040477;28;19951;-86
2023/01/08 05:05:49;;;;;;;;;;;17.70;84.60;;;;;;5038428;28;19917;-86
2023/01/08 05:08:15;;;;;;;;;;;17.60;85.30;;;;;;5021512;28;19971;-86
2023/01/08 05:10:41;;;;;;;;;;;17.40;86.00;;;;;;5038642;28;19909;-87
2023/01/08 05:13:06;;;;;;;;;;;17.30;86.80;;;;;;5038819;28;20112;-86
2023/01/08 05:15:32;;;;;;;;;;;17.20;87.50;;;;;;5021766;28;19920;-87
2023/01/08 05:17:58;;;;;;;;;;;17.10;88.30;;;;;;5021200;28;19917;-86
2023/01/08 05:20:24;;;;;;;;;;;17.10;89.00;;;;;;5039178;28;20179;-86
2023/01/08 05:22:49;;;;;;;;;;;17.00;89.70;;;;;;5022421;28;19920;-86
2023/01/08 05:25:15;;;;;;;;;;;16.90;90.10;;;;;;5023111;28;19909;-86
2023/01/08 05:27:41;;;;;;;;;;;16.90;90.40;;;;;;5022735;28;19909;-86
2023/01/08 05:30:07;;;;;;;;;;;16.80;90.50;;;;;;5023051;28;19909;-86
2023/01/08 05:32:32;;;;;;;;;;;16.80;90.50;;;;;;5022373;28;19909;-87
2023/01/08 05:34:58;;;;;;;;;;;16.80;90.70;;;;;;5039756;28;19909;-86
2023/01/08 05:37:23;;;;;;;;;;;16.90;90.30;;;;;;5022363;28;20195;-86
2023/01/08 05:39:49;;;;;;;;;;;17.00;90.10;;;;;;5022370;28;19983;-86
2023/01/08 05:42:14;;;;;;;;;;;17.10;89.70;;;;;;5021262;28;20003;-86
2023/01/08 05:44:40;;;;;;;;;;;17.30;88.90;;;;;;5020475;28;19916;-86
2023/01/08 05:47:06;;;;;;;;;;;17.40;87.90;;;;;;5021148;28;20003;-86
2023/01/08 05:49:31;;;;;;;;;;;17.60;86.50;;;;;;5021166;28;19910;-86
2023/01/08 05:51:57;;;;;;;;;;;17.70;84.90;;;;;;5038325;28;20278;-86
2023/01/08 05:54:22;;;;;;;;;;;17.90;83.50;;;;;;5037813;28;19909;-86
2023/01/08 05:56:48;;;;;;;;;;;18.10;82.20;;;;;;5038870;28;19956;-86
2023/01/08 05:59:14;;;;;;;;;;;18.20;81.30;;;;;;5021352;28;19917;-87
2023/01/08 06:01:39;;;;;;;;;;;18.20;80.90;;;;;;5021364;28;19913;-86
2023/01/08 06:04:05;;;;;;;;;;;18.20;80.60;;;;;;5021504;28;19908;-86
2023/01/08 06:06:30;;;;;;;;;;;18.20;80.30;;;;;;5038823;28;20275;-86
2023/01/08 06:08:56;;;;;;;;;;;18.20;80.20;;;;;;5029842;28;19917;-86
2023/01/08 06:11:21;;;;;;;;;;;18.20;80.50;;;;;;5022203;28;19909;-86
2023/01/08 06:13:47;;;;;;;;;;;18.10;80.80;;;;;;5020866;28;19908;-86
2023/01/08 06:16:13;;;;;;;;;;;18.10;81.30;;;;;;5019499;28;19909;-86
2023/01/08 06:18:38;;;;;;;;;;;18.00;81.90;;;;;;5020036;28;19924;-86
2023/01/08 06:21:04;;;;;;;;;;;17.90;82.20;;;;;;5019763;28;19971;-86
2023/01/08 06:23:30;;;;;;;;;;;17.90;82.60;;;;;;5020275;28;19974;-86
2023/01/08 06:25:57;;;;;;;;;;;17.80;83.00;;;;;;5019555;28;19913;-86
2023/01/08 06:28:23;;;;;;;;;;;17.70;83.40;;;;;;5036757;28;19909;-86
2023/01/08 06:30:48;;;;;;;;;;;17.70;84.00;;;;;;5019233;28;19939;-86
2023/01/08 06:33:14;;;;;;;;;;;17.60;84.80;;;;;;5018727;28;19928;-86
2023/01/08 06:35:40;;;;;;;;;;;17.50;85.50;;;;;;5019517;28;19914;-86
2023/01/08 06:38:05;;;;;;;;;;;17.40;86.20;;;;;;5019497;28;20263;-86
2023/01/08 06:40:31;;;;;;;;;;;17.30;86.70;;;;;;5019766;28;19921;-86
2023/01/08 06:43:00;;;;;;;;;;;17.20;87.40;;;;;;5020711;28;19909;-86
2023/01/08 06:45:26;;;;;;;;;;;17.10;87.90;;;;;;5037081;28;19909;-86
2023/01/08 06:47:51;;;;;;;;;;;17.10;88.50;;;;;;5021368;28;19909;-86
2023/01/08 06:50:17;;;;;;;;;;;17.00;88.90;;;;;;5020113;28;20157;-86
2023/01/08 06:52:42;;;;;;;;;;;16.90;89.30;;;;;;5019962;28;19974;-86
2023/01/08 06:55:08;;;;;;;;;;;16.90;89.80;;;;;;5019857;28;19936;-86
2023/01/08 06:57:34;;;;;;;;;;;16.80;90.00;;;;;;5019216;28;20367;-86
2023/01/08 06:59:59;;;;;;;;;;;16.80;90.20;;;;;;5018579;28;19925;-86
2023/01/08 07:02:25;;;;;;;;;;;16.80;90.20;;;;;;5019236;28;20012;-86
2023/01/08 07:04:51;;;;;;;;;;;16.80;90.20;;;;;;5037392;28;19913;-86
2023/01/08 07:07:16;;;;;;;;;;;16.90;90.20;;;;;;5020593;28;19909;-86
2023/01/08 07:09:42;;;;;;;;;;;16.90;90.20;;;;;;5037365;28;19915;-86
2023/01/08 07:12:12;;;;;;;;;;;16.80;90.30;;;;;;5020068;28;19952;-86
2023/01/08 07:14:38;;;;;;;;;;;16.80;90.30;;;;;;5037179;28;20357;-86
2023/01/08 07:17:03;;;;;;;;;;;16.90;90.30;;;;;;5036233;28;19912;-86
2023/01/08 07:19:30;;;;;;;;;;;16.90;90.10;;;;;;5036227;28;19940;-87
2023/01/08 07:21:55;;;;;;;;;;;17.00;90.00;;;;;;5019180;28;19916;-88
2023/01/08 07:24:21;;;;;;;;;;;17.10;89.60;;;;;;5019402;28;20004;-88
2023/01/08 07:26:46;;;;;;;;;;;17.10;89.10;;;;;;5018391;28;20196;-88
2023/01/08 07:29:12;;;;;;;;;;;17.30;88.40;;;;;;5018567;28;19912;-88
2023/01/08 07:31:38;;;;;;;;;;;17.30;87.70;;;;;;5019447;28;20226;-88
2023/01/08 07:34:03;;;;;;;;;;;17.50;86.70;;;;;;5018590;28;19917;-89
2023/01/08 07:36:29;;;;;;;;;;;17.60;86.10;;;;;;5019334;28;20004;-89
2023/01/08 07:38:54;;;;;;;;;;;17.60;85.60;;;;;;5018432;28;20272;-88
2023/01/08 07:41:20;;;;;;;;;;;17.60;85.40;;;;;;5019369;28;19939;-88
2023/01/08 07:43:47;;;;;;;;;;;17.60;85.30;;;;;;5019290;28;19921;-89
2023/01/08 07:46:12;;;;;;;;;;;17.60;85.20;;;;;;5036268;28;19939;-88
2023/01/08 07:48:38;;;;;;;;;;;17.60;85.40;;;;;;5018560;28;19909;-89
2023/01/08 07:51:05;;;;;;;;;;;17.50;85.50;;;;;;5018648;28;19918;-88
2023/01/08 07:53:30;;;;;;;;;;;17.50;85.80;;;;;;5034927;28;20308;-88
2023/01/08 07:56:00;;;;;;;;;;;17.50;85.90;;;;;;5017729;28;20007;-89
2023/01/08 07:58:26;;;;;;;;;;;17.50;86.20;;;;;;5033798;28;20264;-88
2023/01/08 08:00:52;;;;;;;;;;;17.40;86.40;;;;;;5016248;28;19974;-88
2023/01/08 08:03:17;;;;;;;;;;;17.40;86.60;;;;;;5017968;28;19909;-88
2023/01/08 08:05:43;;;;;;;;;;;17.40;86.80;;;;;;5017181;28;19914;-88
2023/01/08 08:08:09;;;;;;;;;;;17.30;87.00;;;;;;5017405;28;19909;-89
2023/01/08 08:10:36;;;;;;;;;;;17.30;87.30;;;;;;5033988;28;20179;-88
2023/01/08 08:13:02;;;;;;;;;;;17.30;87.40;;;;;;5017655;28;19920;-88
2023/01/08 08:15:27;;;;;;;;;;;17.30;87.70;;;;;;5034377;28;19909;-88
2023/01/08 08:17:53;;;;;;;;;;;17.20;87.80;;;;;;5016043;28;19971;-88
2023/01/08 08:20:19;;;;;;;;;;;17.20;88.10;;;;;;5016030;28;19909;-88
2023/01/08 08:22:44;;;;;;;;;;;17.20;88.30;;;;;;5032521;28;19909;-88
2023/01/08 08:25:11;;;;;;;;;;;17.20;88.30;;;;;;5034015;28;19913;-87
2023/01/08 08:27:36;;;;;;;;;;;17.20;88.20;;;;;;5033747;28;19920;-88
2023/01/08 08:30:04;;;;;;;;;;;17.10;88.50;;;;;;5016123;28;19909;-87
2023/01/08 08:32:29;;;;;;;;;;;17.10;88.60;;;;;;5033252;28;19909;-88
2023/01/08 08:34:55;;;;;;;;;;;17.10;88.80;;;;;;5015109;28;19909;-87
2023/01/08 08:37:20;;;;;;;;;;;17.10;88.90;;;;;;5014184;28;19941;-88
2023/01/08 08:39:46;;;;;;;;;;;17.10;89.20;;;;;;5014389;28;20002;-87
2023/01/08 08:42:11;;;;;;;;;;;17.00;89.20;;;;;;5033004;28;19909;-87
2023/01/08 08:44:37;;;;;;;;;;;17.00;89.20;;;;;;5015872;28;19924;-87
2023/01/08 08:47:05;;;;;;;;;;;17.10;89.10;;;;;;5015782;28;19909;-87
2023/01/08 08:49:32;;;;;;;;;;;17.10;89.00;;;;;;5033678;28;20176;-87
2023/01/08 08:51:58;;;;;;;;;;;17.20;88.90;;;;;;5017785;28;19913;-87
2023/01/08 08:54:23;;;;;;;;;;;17.10;89.50;;;;;;5016691;28;19919;-87
2023/01/08 08:56:49;;;;;;;;;;;17.10;90.10;;;;;;5017361;28;19971;-89
2023/01/08 08:59:14;;;;;;;;;;;17.00;90.30;;;;;;5033827;28;20195;-87
2023/01/08 09:01:39;;;;;;;;;;;17.00;90.50;;;;;;5016887;28;20238;-87
2023/01/08 09:04:05;;;;;;;;;;;17.00;90.50;;;;;;5016556;28;19909;-87
2023/01/08 09:06:31;;;;;;;;;;;17.10;90.40;;;;;;5016236;28;20033;-87
2023/01/08 09:08:56;;;;;;;;;;;17.00;90.40;;;;;;5016337;28;19921;-86
2023/01/08 09:11:22;;;;;;;;;;;17.10;90.30;;;;;;5016937;28;19996;-87
2023/01/08 09:13:47;;;;;;;;;;;17.00;90.40;;;;;;5016355;28;19936;-87
2023/01/08 09:16:13;;;;;;;;;;;16.90;90.60;;;;;;5016262;28;19909;-87
2023/01/08 09:18:38;;;;;;;;;;;16.80;90.90;;;;;;5014910;28;19924;-87
2023/01/08 09:21:05;;;;;;;;;;;16.80;91.00;;;;;;5016022;28;20264;-87
2023/01/08 09:23:31;;;;;;;;;;;18.00;88.70;;;;;;5015971;28;20259;-87
2023/01/08 09:26:00;;;;;;;;;;;18.20;85.30;;;;;;5030761;28;19920;-87
2023/01/08 09:28:26;;;;;;;;;;;18.40;83.00;;;;;;5031865;28;19952;-88
2023/01/08 09:30:52;;;;;;;;;;;19.20;79.80;;;;;;5033502;28;19959;-88
2023/01/08 09:33:17;;;;;;;;;;;19.60;76.00;;;;;;5016640;28;19917;-88
2023/01/08 09:35:43;;;;;;;;;;;19.90;73.00;;;;;;5017606;28;19910;-87
2023/01/08 09:38:08;;;;;;;;;;;19.90;71.40;;;;;;5017113;28;19921;-87
2023/01/08 09:40:38;;;;;;;;;;;19.90;70.70;;;;;;5018388;28;20299;-87
2023/01/08 09:43:04;;;;;;;;;;;20.00;70.40;;;;;;5035119;28;19909;-87
2023/01/08 09:45:31;;;;;;;;;;;19.80;70.90;;;;;;5017421;28;19916;-88
2023/01/08 09:47:58;;;;;;;;;;;19.90;70.80;;;;;;5034675;28;19965;-87
2023/01/08 09:50:26;;;;;;;;;;;20.10;69.70;;;;;;5034613;28;19909;-87
2023/01/08 09:52:52;;;;;;;;;;;20.30;68.60;;;;;;5034426;28;19974;-87
2023/01/08 09:55:17;;;;;;;;;;;20.30;67.90;;;;;;5038500;28;20052;-87
2023/01/08 09:57:43;;;;;;;;;;;20.30;68.00;;;;;;5034890;28;19909;-87
2023/01/08 10:00:18;;;;;;;;;;;20.20;68.30;;;;;;5015503;28;19933;-86
2023/01/08 10:02:44;;;;;;;;;;;20.10;68.50;;;;;;5016096;28;20177;-87
2023/01/08 10:05:14;;;;;;;;;;;20.10;68.60;;;;;;5033228;28;19909;-87
2023/01/08 10:07:39;;;;;;;;;;;20.00;68.90;;;;;;5033953;28;19909;-87
2023/01/08 10:10:13;;;;;;;;;;;19.90;69.40;;;;;;5017891;28;19910;-87
2023/01/08 10:12:39;;;;;;;;;;;19.70;70.10;;;;;;5033664;28;19920;-87
2023/01/08 10:15:07;;;;;;;;;;;19.50;71.40;;;;;;5032959;28;20187;-87
2023/01/08 10:17:36;;;;;;;;;;;19.40;72.50;;;;;;5030798;28;20019;-87
2023/01/08 10:20:12;;;;;;;;;;;19.20;73.60;;;;;;5016413;28;20357;-88
2023/01/08 10:22:38;;;;;;;;;;;19.10;74.30;;;;;;5015915;28;20264;-88
2023/01/08 10:25:11;;;;;;;;;;;19.10;74.50;;;;;;5016450;28;20330;-87
2023/01/08 10:27:45;;;;;;;;;;;19.00;74.80;;;;;;5013841;28;20487;-88
2023/01/08 10:30:14;;;;;;;;;;;19.00;75.40;;;;;;5031886;28;19982;-88
2023/01/08 10:32:45;;;;;;;;;;;18.90;75.70;;;;;;5016605;28;20181;-88
2023/01/08 10:35:16;;;;;;;;;;;18.80;76.10;;;;;;5033645;28;19921;-88
2023/01/08 10:37:42;;;;;;;;;;;18.80;76.50;;;;;;5015866;28;20160;-87
2023/01/08 10:40:28;;;;;;;;;;;18.70;76.90;;;;;;5014912;28;20373;-87
2023/01/08 10:42:55;;;;;;;;;;;18.70;77.30;;;;;;5015333;28;20066;-88
2023/01/08 10:45:21;;;;;;;;;;;18.60;77.60;;;;;;5015409;28;19919;-88
2023/01/08 10:47:49;;;;;;;;;;;18.60;78.00;;;;;;5016224;28;20133;-88
2023/01/08 10:50:21;;;;;;;;;;;18.50;78.30;;;;;;5016068;28;19909;-88
2023/01/08 10:52:54;;;;;;;;;;;18.50;78.50;;;;;;5015838;28;19917;-87
2023/01/08 10:55:24;;;;;;;;;;;18.50;78.80;;;;;;5014095;28;20109;-88
2023/01/08 10:58:00;;;;;;;;;;;18.40;79.00;;;;;;5032456;28;19913;-88
2023/01/08 11:00:30;;;;;;;;;;;18.40;79.20;;;;;;5014273;28;19917;-88
2023/01/08 11:02:57;;;;;;;;;;;18.40;79.40;;;;;;5014848;28;19963;-88
2023/01/08 11:05:31;;;;;;;;;;;18.40;79.50;;;;;;5032462;28;20007;-87
2023/01/08 11:07:58;;;;;;;;;;;18.40;79.50;;;;;;5014115;28;20222;-88
2023/01/08 11:10:25;;;;;;;;;;;18.40;79.40;;;;;;5014308;28;19941;-88
2023/01/08 11:12:55;;;;;;;;;;;18.40;79.30;;;;;;5015198;28;19914;-88
2023/01/08 11:15:21;;;;;;;;;;;18.50;79.20;;;;;;5014493;28;19944;-88
2023/01/08 11:17:47;;;;;;;;;;;18.50;79.10;;;;;;5013581;28;20278;-88
2023/01/08 11:20:21;;;;;;;;;;;18.50;79.00;;;;;;5013347;28;20016;-88
2023/01/08 11:22:46;;;;;;;;;;;18.50;78.90;;;;;;5013101;28;20234;-88
2023/01/08 11:25:20;;;;;;;;;;;18.50;79.00;;;;;;5012698;28;20310;-87
2023/01/08 11:27:46;;;;;;;;;;;18.50;78.70;;;;;;5012697;28;20076;-87
2023/01/08 11:30:15;;;;;;;;;;;18.50;78.60;;;;;;5012683;28;20346;-88
2023/01/08 11:32:47;;;;;;;;;;;18.50;78.40;;;;;;5011857;28;20280;-88
2023/01/08 11:35:16;;;;;;;;;;;18.60;78.30;;;;;;5012345;28;19909;-87
2023/01/08 11:37:47;;;;;;;;;;;18.60;77.90;;;;;;5012494;28;19948;-87
2023/01/08 11:40:14;;;;;;;;;;;18.60;77.60;;;;;;5011112;28;20382;-88
2023/01/08 11:42:58;;;;;;;;;;;18.60;77.50;;;;;;5031751;28;19953;-88
2023/01/08 11:45:32;;;;;;;;;;;18.60;77.70;;;;;;5015570;28;19909;-87
2023/01/08 11:47:58;;;;;;;;;;;18.60;77.90;;;;;;5015569;28;19931;-87
2023/01/08 11:50:27;;;;;;;;;;;18.50;77.80;;;;;;5012116;28;20206;-88
2023/01/08 11:52:53;;;;;;;;;;;18.50;78.00;;;;;;5012186;28;20004;-87
2023/01/08 11:55:41;;;;;;;;;;;18.50;78.40;;;;;;5013238;28;20023;-88
2023/01/08 11:58:07;;;;;;;;;;;18.40;78.70;;;;;;5029239;28;19920;-87
2023/01/08 12:00:40;;;;;;;;;;;18.40;79.30;;;;;;5012320;28;19909;-87
2023/01/08 12:03:25;;;;;;;;;;;18.30;79.80;;;;;;5013300;28;19959;-87
2023/01/08 12:06:09;;;;;;;;;;;18.30;80.40;;;;;;5013744;28;20062;-86
2023/01/08 12:08:50;;;;;;;;;;;18.30;80.40;;;;;;5012558;28;20016;-87
2023/01/08 12:11:27;;;;;;;;;;;18.40;80.50;;;;;;5011971;28;20012;-87
2023/01/08 12:13:58;;;;;;;;;;;18.30;80.60;;;;;;5011766;28;19927;-87
2023/01/08 12:16:33;;;;;;;;;;;18.30;81.00;;;;;;5010384;28;19939;-87
2023/01/08 12:19:04;;;;;;;;;;;18.20;81.40;;;;;;5029134;28;19913;-87
2023/01/08 12:21:31;;;;;;;;;;;18.20;81.60;;;;;;5012945;28;20345;-87
2023/01/08 12:24:17;;;;;;;;;;;18.20;82.40;;;;;;5013207;28;19920;-87
2023/01/08 12:26:55;;;;;;;;;;;18.20;82.70;;;;;;5004050;28;20548;-87
2023/01/08 12:29:23;;;;;;;;;;;18.10;82.90;;;;;;5015723;28;19909;-87
2023/01/08 12:31:55;;;;;;;;;;;18.10;83.10;;;;;;5013794;28;19913;-87
2023/01/08 12:34:30;;;;;;;;;;;18.10;83.40;;;;;;5015604;28;19924;-87
2023/01/08 12:37:03;;;;;;;;;;;18.10;83.50;;;;;;5015815;28;19910;-88
2023/01/08 12:39:35;;;;;;;;;;;18.00;84.10;;;;;;5013904;28;19917;-87
2023/01/08 12:42:07;;;;;;;;;;;18.00;84.60;;;;;;5014760;28;19913;-88
2023/01/08 12:44:35;;;;;;;;;;;17.90;84.80;;;;;;5014949;28;19909;-87
2023/01/08 12:47:01;;;;;;;;;;;17.90;85.10;;;;;;5014490;28;20012;-87
2023/01/08 12:49:34;;;;;;;;;;;17.90;85.10;;;;;;5014125;28;19955;-88
2023/01/08 12:52:03;;;;;;;;;;;17.90;85.50;;;;;;5013997;28;19979;-88
2023/01/08 12:54:51;;;;;;;;;;;17.90;85.60;;;;;;5011065;28;20077;-88
2023/01/08 12:57:33;;;;;;;;;;;17.80;87.00;;;;;;5014536;28;20298;-87
2023/01/08 13:00:10;;;;;;;;;;;17.80;87.30;;;;;;5029528;28;20015;-87
2023/01/08 13:02:55;;;;;;;;;;;17.80;87.80;;;;;;5011506;28;19916;-87
2023/01/08 13:05:21;;;;;;;;;;;17.70;88.20;;;;;;5010966;28;19916;-87
2023/01/08 13:07:48;;;;;;;;;;;17.70;88.80;;;;;;5012814;28;19909;-87
2023/01/08 13:10:23;;;;;;;;;;;17.60;89.20;;;;;;5015836;28;20240;-88
2023/01/08 13:12:50;;;;;;;;;;;17.50;89.80;;;;;;5017068;28;20032;-87
2023/01/08 13:15:20;;;;;;;;;;;17.50;90.20;;;;;;5016653;28;20175;-87
2023/01/08 13:17:46;;;;;;;;;;;17.40;90.40;;;;;;5014534;28;19921;-86
2023/01/08 13:20:17;;;;;;;;;;;17.40;90.60;;;;;;5015066;28;19923;-87
2023/01/08 13:22:43;;;;;;;;;;;17.30;90.90;;;;;;5015731;28;19909;-88
2023/01/08 13:25:21;;;;;;;;;;;17.30;91.10;;;;;;5014579;28;19940;-87
2023/01/08 13:27:47;;;;;;;;;;;17.30;91.20;;;;;;5013996;28;19944;-87
2023/01/08 13:30:31;;;;;;;;;;;17.30;91.40;;;;;;5014326;28;20285;-87
2023/01/08 13:32:57;;;;;;;;;;;17.20;91.40;;;;;;5016118;28;20329;-87
2023/01/08 13:35:30;;;;;;;;;;;17.20;91.50;;;;;;5014486;28;19978;-87
2023/01/08 13:38:12;;;;;;;;;;;17.20;91.60;;;;;;5018555;28;19910;-87
2023/01/08 13:40:38;;;;;;;;;;;17.20;91.70;;;;;;5013204;28;20032;-87
2023/01/08 13:43:05;;;;;;;;;;;17.30;91.70;;;;;;5010904;28;20459;-87
2023/01/08 13:45:31;;;;;;;;;;;17.40;91.50;;;;;;5012311;28;19970;-87
2023/01/08 13:47:57;;;;;;;;;;;17.50;91.20;;;;;;5010827;28;19917;-87
2023/01/08 13:50:24;;;;;;;;;;;17.70;90.70;;;;;;5029625;28;20195;-87
2023/01/08 13:52:57;;;;;;;;;;;17.80;90.10;;;;;;5013433;28;20181;-87
2023/01/08 13:55:22;;;;;;;;;;;18.00;89.40;;;;;;5030175;28;20115;-86
2023/01/08 13:57:51;;;;;;;;;;;18.10;88.70;;;;;;5014542;28;20271;-86
2023/01/08 14:00:23;;;;;;;;;;;18.10;88.10;;;;;;5014503;28;20196;-87
2023/01/08 14:02:50;;;;;;;;;;;18.20;87.60;;;;;;5012689;28;19917;-87
2023/01/08 14:05:18;;;;;;;;;;;18.20;87.10;;;;;;5011632;28;20097;-87
2023/01/08 14:07:44;;;;;;;;;;;18.20;87.00;;;;;;5013374;28;20154;-87
2023/01/08 14:10:12;;;;;;;;;;;18.20;87.40;;;;;;5011677;28;20130;-87
2023/01/08 14:12:38;;;;;;;;;;;18.20;87.50;;;;;;5012749;28;20255;-87
2023/01/08 14:15:08;;;;;;;;;;;18.10;87.90;;;;;;5010438;28;20170;-87
2023/01/08 14:17:35;;;;;;;;;;;18.10;88.20;;;;;;5011359;28;20290;-87
2023/01/08 14:20:01;;;;;;;;;;;18.00;88.60;;;;;;5009699;28;20077;-87
2023/01/08 14:22:31;;;;;;;;;;;17.90;89.30;;;;;;5008712;28;19909;-87